Thomas, New Mexico
Current Conditions -  °F | °C
As of 11:55 AM on Sunday 21 Dec 2014 (Local Time) from KCAO Reporting Station
Clear Clear  
Wind Chill: 13°   Ceiling: Unl
Heat Index: 13°   Visibility: 10mi
Dew Point: -7°   Wind: 9mph
Humidity: 25%   Direction: 220°SW
Pressure: 29.7"   Gusts: NA
Location:  36.2639°N, 103.376°W
Report Text: KCAO 211855Z AUTO 22008KT 10SM CLR 13/M07 A2970 RMK AO2 SLP034 T01331067
Loading
Personal Weather Stations






























Interactive Weather Map New forecast layout! Learn more

10-Day Weather Forecast

Advertisements
Track Severe Weather on mobile